sensor_id;sensor_type;location;lat;lon;timestamp;temperature;humidity
8067;DHT22;4076;48.076;9.118;2022-08-21T00:01:16;15.20;99.90
8067;DHT22;4076;48.076;9.118;2022-08-21T00:03:43;15.20;99.90
8067;DHT22;4076;48.076;9.118;2022-08-21T00:06:09;15.10;99.90
8067;DHT22;4076;48.076;9.118;2022-08-21T00:08:35;15.10;99.90
8067;DHT22;4076;48.076;9.118;2022-08-21T00:11:01;15.10;99.90
8067;DHT22;4076;48.076;9.118;2022-08-21T00:13:26;15.00;99.90
8067;DHT22;4076;48.076;9.118;2022-08-21T00:15:52;15.00;99.90
8067;DHT22;4076;48.076;9.118;2022-08-21T00:18:18;15.00;99.90
8067;DHT22;4076;48.076;9.118;2022-08-21T00:20:46;14.90;99.90
8067;DHT22;4076;48.076;9.118;2022-08-21T00:23:11;14.90;99.90
8067;DHT22;4076;48.076;9.118;2022-08-21T00:25:38;14.90;99.90
8067;DHT22;4076;48.076;9.118;2022-08-21T00:28:04;14.80;99.90
8067;DHT22;4076;48.076;9.118;2022-08-21T00:30:30;14.80;99.90
8067;DHT22;4076;48.076;9.118;2022-08-21T00:32:57;14.80;99.90
8067;DHT22;4076;48.076;9.118;2022-08-21T00:35:30;14.70;99.90
8067;DHT22;4076;48.076;9.118;2022-08-21T00:37:57;14.70;99.90
8067;DHT22;4076;48.076;9.118;2022-08-21T00:40:26;14.70;99.90
8067;DHT22;4076;48.076;9.118;2022-08-21T00:42:52;14.80;99.90
8067;DHT22;4076;48.076;9.118;2022-08-21T00:45:18;14.70;99.90
8067;DHT22;4076;48.076;9.118;2022-08-21T00:47:44;14.60;99.90
8067;DHT22;4076;48.076;9.118;2022-08-21T00:50:10;14.70;99.90
8067;DHT22;4076;48.076;9.118;2022-08-21T00:52:37;14.60;99.90
8067;DHT22;4076;48.076;9.118;2022-08-21T00:55:06;14.60;99.90
8067;DHT22;4076;48.076;9.118;2022-08-21T00:57:38;14.50;99.90
8067;DHT22;4076;48.076;9.118;2022-08-21T01:00:08;14.50;99.90
8067;DHT22;4076;48.076;9.118;2022-08-21T01:02:34;14.50;99.90
8067;DHT22;4076;48.076;9.118;2022-08-21T01:05:00;14.50;99.90
8067;DHT22;4076;48.076;9.118;2022-08-21T01:07:25;14.50;99.90
8067;DHT22;4076;48.076;9.118;2022-08-21T01:09:51;14.40;99.90
8067;DHT22;4076;48.076;9.118;2022-08-21T01:12:17;14.40;99.90
8067;DHT22;4076;48.076;9.118;2022-08-21T01:14:43;14.40;99.90
8067;DHT22;4076;48.076;9.118;2022-08-21T01:17:13;14.40;99.90
8067;DHT22;4076;48.076;9.118;2022-08-21T01:19:40;14.40;99.90
8067;DHT22;4076;48.076;9.118;2022-08-21T01:22:06;14.40;99.90
8067;DHT22;4076;48.076;9.118;2022-08-21T01:24:32;14.30;99.90
8067;DHT22;4076;48.076;9.118;2022-08-21T01:26:59;14.30;99.90
8067;DHT22;4076;48.076;9.118;2022-08-21T01:29:36;14.30;99.90
8067;DHT22;4076;48.076;9.118;2022-08-21T01:32:06;14.20;99.90
8067;DHT22;4076;48.076;9.118;2022-08-21T01:34:34;14.20;99.90
8067;DHT22;4076;48.076;9.118;2022-08-21T01:37:01;14.10;99.90
8067;DHT22;4076;48.076;9.118;2022-08-21T01:39:28;14.10;99.90
8067;DHT22;4076;48.076;9.118;2022-08-21T01:41:53;14.00;99.90
8067;DHT22;4076;48.076;9.118;2022-08-21T01:44:23;14.00;99.90
8067;DHT22;4076;48.076;9.118;2022-08-21T01:46:50;14.00;99.90
8067;DHT22;4076;48.076;9.118;2022-08-21T01:49:16;14.00;99.90
8067;DHT22;4076;48.076;9.118;2022-08-21T01:51:42;14.00;99.90
8067;DHT22;4076;48.076;9.118;2022-08-21T01:54:08;14.00;99.90
8067;DHT22;4076;48.076;9.118;2022-08-21T01:56:40;14.00;99.90
8067;DHT22;4076;48.076;9.118;2022-08-21T01:59:07;13.90;99.90
8067;DHT22;4076;48.076;9.118;2022-08-21T02:01:32;13.90;99.90
8067;DHT22;4076;48.076;9.118;2022-08-21T02:03:58;13.80;99.90
8067;DHT22;4076;48.076;9.118;2022-08-21T02:06:25;13.80;99.90
8067;DHT22;4076;48.076;9.118;2022-08-21T02:08:51;13.70;99.90
8067;DHT22;4076;48.076;9.118;2022-08-21T02:11:18;13.70;99.90
8067;DHT22;4076;48.076;9.118;2022-08-21T02:13:43;13.60;99.90
8067;DHT22;4076;48.076;9.118;2022-08-21T02:16:09;13.60;99.90
8067;DHT22;4076;48.076;9.118;2022-08-21T02:18:35;13.50;99.90
8067;DHT22;4076;48.076;9.118;2022-08-21T02:21:01;13.50;99.90
8067;DHT22;4076;48.076;9.118;2022-08-21T02:23:27;13.50;99.90
8067;DHT22;4076;48.076;9.118;2022-08-21T02:25:56;13.50;99.90
8067;DHT22;4076;48.076;9.118;2022-08-21T02:28:22;13.50;99.90
8067;DHT22;4076;48.076;9.118;2022-08-21T02:30:48;13.50;99.90
8067;DHT22;4076;48.076;9.118;2022-08-21T02:33:14;13.50;99.90
8067;DHT22;4076;48.076;9.118;2022-08-21T02:35:42;13.50;99.90
8067;DHT22;4076;48.076;9.118;2022-08-21T02:38:10;13.40;99.90
8067;DHT22;4076;48.076;9.118;2022-08-21T02:40:39;13.40;99.90
8067;DHT22;4076;48.076;9.118;2022-08-21T02:43:06;13.40;99.90
8067;DHT22;4076;48.076;9.118;2022-08-21T02:45:32;13.30;99.90
8067;DHT22;4076;48.076;9.118;2022-08-21T02:48:01;13.30;99.90
8067;DHT22;4076;48.076;9.118;2022-08-21T02:50:30;13.20;99.90
8067;DHT22;4076;48.076;9.118;2022-08-21T02:52:57;13.20;99.90
8067;DHT22;4076;48.076;9.118;2022-08-21T02:55:26;13.10;99.90
8067;DHT22;4076;48.076;9.118;2022-08-21T02:57:53;13.10;99.90
8067;DHT22;4076;48.076;9.118;2022-08-21T03:00:19;13.10;99.90
8067;DHT22;4076;48.076;9.118;2022-08-21T03:02:46;13.00;99.90
8067;DHT22;4076;48.076;9.118;2022-08-21T03:05:13;13.00;99.90
8067;DHT22;4076;48.076;9.118;2022-08-21T03:07:41;13.00;99.90
8067;DHT22;4076;48.076;9.118;2022-08-21T03:10:07;12.90;99.90
8067;DHT22;4076;48.076;9.118;2022-08-21T03:12:34;12.90;99.90
8067;DHT22;4076;48.076;9.118;2022-08-21T03:15:02;12.90;99.90
8067;DHT22;4076;48.076;9.118;2022-08-21T03:17:28;12.80;99.90
8067;DHT22;4076;48.076;9.118;2022-08-21T03:19:53;12.90;99.90
8067;DHT22;4076;48.076;9.118;2022-08-21T03:22:19;12.90;99.90
8067;DHT22;4076;48.076;9.118;2022-08-21T03:24:44;12.90;99.90
8067;DHT22;4076;48.076;9.118;2022-08-21T03:27:11;12.80;99.90
8067;DHT22;4076;48.076;9.118;2022-08-21T03:29:38;12.70;99.90
8067;DHT22;4076;48.076;9.118;2022-08-21T03:32:04;12.70;99.90
8067;DHT22;4076;48.076;9.118;2022-08-21T03:34:29;12.70;99.90
8067;DHT22;4076;48.076;9.118;2022-08-21T03:36:55;12.60;99.90
8067;DHT22;4076;48.076;9.118;2022-08-21T03:39:21;12.60;99.90
8067;DHT22;4076;48.076;9.118;2022-08-21T03:41:47;12.60;99.90
8067;DHT22;4076;48.076;9.118;2022-08-21T03:44:13;12.60;99.90
8067;DHT22;4076;48.076;9.118;2022-08-21T03:46:39;12.60;99.90
8067;DHT22;4076;48.076;9.118;2022-08-21T03:49:05;12.60;99.90
8067;DHT22;4076;48.076;9.118;2022-08-21T03:51:31;12.60;99.90
8067;DHT22;4076;48.076;9.118;2022-08-21T03:53:59;12.60;99.90
8067;DHT22;4076;48.076;9.118;2022-08-21T03:56:24;12.60;99.90
8067;DHT22;4076;48.076;9.118;2022-08-21T03:58:50;12.60;99.90
8067;DHT22;4076;48.076;9.118;2022-08-21T04:01:16;12.60;99.90
8067;DHT22;4076;48.076;9.118;2022-08-21T04:03:41;12.60;99.90
8067;DHT22;4076;48.076;9.118;2022-08-21T04:06:07;12.60;99.90
8067;DHT22;4076;48.076;9.118;2022-08-21T04:08:33;12.70;99.90
8067;DHT22;4076;48.076;9.118;2022-08-21T04:10:59;12.70;99.90
8067;DHT22;4076;48.076;9.118;2022-08-21T04:13:25;12.80;99.90
8067;DHT22;4076;48.076;9.118;2022-08-21T04:15:54;12.70;99.90
8067;DHT22;4076;48.076;9.118;2022-08-21T04:18:20;12.60;99.90
8067;DHT22;4076;48.076;9.118;2022-08-21T04:20:49;12.50;99.90
8067;DHT22;4076;48.076;9.118;2022-08-21T04:23:15;12.50;99.90
8067;DHT22;4076;48.076;9.118;2022-08-21T04:25:40;12.50;99.90
8067;DHT22;4076;48.076;9.118;2022-08-21T04:28:06;12.50;99.90
8067;DHT22;4076;48.076;9.118;2022-08-21T04:30:32;12.50;99.90
8067;DHT22;4076;48.076;9.118;2022-08-21T04:32:58;12.50;99.90
8067;DHT22;4076;48.076;9.118;2022-08-21T04:35:26;12.50;99.90
8067;DHT22;4076;48.076;9.118;2022-08-21T04:37:52;12.50;99.90
8067;DHT22;4076;48.076;9.118;2022-08-21T04:40:19;12.40;99.90
8067;DHT22;4076;48.076;9.118;2022-08-21T04:42:50;12.50;99.90
8067;DHT22;4076;48.076;9.118;2022-08-21T04:45:23;12.50;99.90
8067;DHT22;4076;48.076;9.118;2022-08-21T04:47:50;12.50;99.90
8067;DHT22;4076;48.076;9.118;2022-08-21T04:50:16;12.50;99.90
8067;DHT22;4076;48.076;9.118;2022-08-21T04:52:43;12.50;99.90
8067;DHT22;4076;48.076;9.118;2022-08-21T04:55:09;12.50;99.90
8067;DHT22;4076;48.076;9.118;2022-08-21T04:57:35;12.40;99.90
8067;DHT22;4076;48.076;9.118;2022-08-21T05:00:02;12.40;99.90
8067;DHT22;4076;48.076;9.118;2022-08-21T05:02:28;12.40;99.90
8067;DHT22;4076;48.076;9.118;2022-08-21T05:04:54;12.50;99.90
8067;DHT22;4076;48.076;9.118;2022-08-21T05:07:23;12.60;99.90
8067;DHT22;4076;48.076;9.118;2022-08-21T05:09:50;12.70;99.90
8067;DHT22;4076;48.076;9.118;2022-08-21T05:12:17;12.90;99.90
8067;DHT22;4076;48.076;9.118;2022-08-21T05:14:42;13.00;99.90
8067;DHT22;4076;48.076;9.118;2022-08-21T05:17:09;13.10;99.90
8067;DHT22;4076;48.076;9.118;2022-08-21T05:19:34;13.30;99.90
8067;DHT22;4076;48.076;9.118;2022-08-21T05:22:00;13.40;99.90
8067;DHT22;4076;48.076;9.118;2022-08-21T05:24:26;13.50;99.90
8067;DHT22;4076;48.076;9.118;2022-08-21T05:26:52;13.60;99.90
8067;DHT22;4076;48.076;9.118;2022-08-21T05:29:18;13.70;99.90
8067;DHT22;4076;48.076;9.118;2022-08-21T05:31:44;13.80;99.90
8067;DHT22;4076;48.076;9.118;2022-08-21T05:34:11;13.80;99.90
8067;DHT22;4076;48.076;9.118;2022-08-21T05:36:36;13.80;99.90
8067;DHT22;4076;48.076;9.118;2022-08-21T05:39:02;13.90;99.90
8067;DHT22;4076;48.076;9.118;2022-08-21T05:41:28;14.10;99.90
8067;DHT22;4076;48.076;9.118;2022-08-21T05:43:53;14.30;99.90
8067;DHT22;4076;48.076;9.118;2022-08-21T05:46:19;14.50;99.90
8067;DHT22;4076;48.076;9.118;2022-08-21T05:48:45;14.70;99.90
8067;DHT22;4076;48.076;9.118;2022-08-21T05:51:12;14.80;99.90
8067;DHT22;4076;48.076;9.118;2022-08-21T05:53:40;15.00;99.90
8067;DHT22;4076;48.076;9.118;2022-08-21T05:56:08;15.30;99.90
8067;DHT22;4076;48.076;9.118;2022-08-21T05:58:34;15.70;99.90
8067;DHT22;4076;48.076;9.118;2022-08-21T06:01:01;16.20;99.90
8067;DHT22;4076;48.076;9.118;2022-08-21T06:03:32;16.50;99.90
8067;DHT22;4076;48.076;9.118;2022-08-21T06:05:58;16.70;99.90
8067;DHT22;4076;48.076;9.118;2022-08-21T06:08:24;16.70;99.90
8067;DHT22;4076;48.076;9.118;2022-08-21T06:10:51;16.70;99.90
8067;DHT22;4076;48.076;9.118;2022-08-21T06:13:18;16.70;99.90
8067;DHT22;4076;48.076;9.118;2022-08-21T06:15:45;16.70;99.90
8067;DHT22;4076;48.076;9.118;2022-08-21T06:18:11;16.70;99.90
8067;DHT22;4076;48.076;9.118;2022-08-21T06:20:37;16.60;99.90
8067;DHT22;4076;48.076;9.118;2022-08-21T06:23:03;16.60;99.90
8067;DHT22;4076;48.076;9.118;2022-08-21T06:25:29;16.70;99.90
8067;DHT22;4076;48.076;9.118;2022-08-21T06:28:06;16.80;99.90
8067;DHT22;4076;48.076;9.118;2022-08-21T06:30:32;17.00;99.90
8067;DHT22;4076;48.076;9.118;2022-08-21T06:32:58;17.20;99.90
8067;DHT22;4076;48.076;9.118;2022-08-21T06:35:24;17.30;99.90
8067;DHT22;4076;48.076;9.118;2022-08-21T06:37:50;17.20;99.90
8067;DHT22;4076;48.076;9.118;2022-08-21T06:40:16;17.20;99.90
8067;DHT22;4076;48.076;9.118;2022-08-21T06:42:41;17.20;99.90
8067;DHT22;4076;48.076;9.118;2022-08-21T06:45:07;17.30;99.90
8067;DHT22;4076;48.076;9.118;2022-08-21T06:47:33;17.50;99.90
8067;DHT22;4076;48.076;9.118;2022-08-21T06:49:59;17.90;99.90
8067;DHT22;4076;48.076;9.118;2022-08-21T06:52:24;18.40;99.90
8067;DHT22;4076;48.076;9.118;2022-08-21T06:54:50;19.00;99.90
8067;DHT22;4076;48.076;9.118;2022-08-21T06:57:15;19.50;99.90
8067;DHT22;4076;48.076;9.118;2022-08-21T06:59:41;19.70;99.90
8067;DHT22;4076;48.076;9.118;2022-08-21T07:02:06;20.00;99.90
8067;DHT22;4076;48.076;9.118;2022-08-21T07:04:33;20.10;99.90
8067;DHT22;4076;48.076;9.118;2022-08-21T07:06:58;20.30;99.90
8067;DHT22;4076;48.076;9.118;2022-08-21T07:09:24;20.80;99.90
8067;DHT22;4076;48.076;9.118;2022-08-21T07:11:52;21.10;99.90
8067;DHT22;4076;48.076;9.118;2022-08-21T07:14:18;21.10;99.90
8067;DHT22;4076;48.076;9.118;2022-08-21T07:16:44;20.90;99.90
8067;DHT22;4076;48.076;9.118;2022-08-21T07:19:09;20.80;99.90
8067;DHT22;4076;48.076;9.118;2022-08-21T07:21:35;20.60;99.90
8067;DHT22;4076;48.076;9.118;2022-08-21T07:24:00;20.50;99.90
8067;DHT22;4076;48.076;9.118;2022-08-21T07:26:26;20.50;99.90
8067;DHT22;4076;48.076;9.118;2022-08-21T07:28:52;20.80;99.90
8067;DHT22;4076;48.076;9.118;2022-08-21T07:31:20;21.10;99.90
8067;DHT22;4076;48.076;9.118;2022-08-21T07:33:46;21.30;99.90
8067;DHT22;4076;48.076;9.118;2022-08-21T07:36:13;21.30;99.90
8067;DHT22;4076;48.076;9.118;2022-08-21T07:38:39;21.40;99.90
8067;DHT22;4076;48.076;9.118;2022-08-21T07:41:12;21.50;99.60
8067;DHT22;4076;48.076;9.118;2022-08-21T07:43:38;21.60;97.90
8067;DHT22;4076;48.076;9.118;2022-08-21T07:46:04;21.90;98.70
8067;DHT22;4076;48.076;9.118;2022-08-21T07:48:30;22.30;95.20
8067;DHT22;4076;48.076;9.118;2022-08-21T07:50:55;22.80;95.00
8067;DHT22;4076;48.076;9.118;2022-08-21T07:53:21;23.00;92.40
8067;DHT22;4076;48.076;9.118;2022-08-21T07:55:47;23.50;91.10
8067;DHT22;4076;48.076;9.118;2022-08-21T07:58:12;24.30;90.60
8067;DHT22;4076;48.076;9.118;2022-08-21T08:00:39;24.40;85.60
8067;DHT22;4076;48.076;9.118;2022-08-21T08:03:05;24.70;83.30
8067;DHT22;4076;48.076;9.118;2022-08-21T08:05:31;26.40;78.10
8067;DHT22;4076;48.076;9.118;2022-08-21T08:07:58;28.20;64.00
8067;DHT22;4076;48.076;9.118;2022-08-21T08:10:24;29.40;57.80
8067;DHT22;4076;48.076;9.118;2022-08-21T08:12:51;30.00;54.00
8067;DHT22;4076;48.076;9.118;2022-08-21T08:15:20;30.10;52.40
8067;DHT22;4076;48.076;9.118;2022-08-21T08:17:45;30.30;51.40
8067;DHT22;4076;48.076;9.118;2022-08-21T08:20:13;30.60;50.50
8067;DHT22;4076;48.076;9.118;2022-08-21T08:22:40;30.90;48.70
8067;DHT22;4076;48.076;9.118;2022-08-21T08:25:08;31.60;47.80
8067;DHT22;4076;48.076;9.118;2022-08-21T08:27:33;32.20;46.60
8067;DHT22;4076;48.076;9.118;2022-08-21T08:29:59;32.70;43.60
8067;DHT22;4076;48.076;9.118;2022-08-21T08:32:25;33.50;42.70
8067;DHT22;4076;48.076;9.118;2022-08-21T08:34:50;34.90;40.70
8067;DHT22;4076;48.076;9.118;2022-08-21T08:37:18;36.20;38.40
8067;DHT22;4076;48.076;9.118;2022-08-21T08:39:44;38.50;34.10
8067;DHT22;4076;48.076;9.118;2022-08-21T08:42:19;38.90;33.90
8067;DHT22;4076;48.076;9.118;2022-08-21T08:47:16;41.40;29.00
8067;DHT22;4076;48.076;9.118;2022-08-21T08:52:23;42.70;27.50
8067;DHT22;4076;48.076;9.118;2022-08-21T08:57:37;44.10;26.70
8067;DHT22;4076;48.076;9.118;2022-08-21T09:00:08;45.20;24.60
8067;DHT22;4076;48.076;9.118;2022-08-21T09:02:38;45.70;23.70
8067;DHT22;4076;48.076;9.118;2022-08-21T09:05:04;45.60;24.70
8067;DHT22;4076;48.076;9.118;2022-08-21T09:15:59;46.10;24.10
8067;DHT22;4076;48.076;9.118;2022-08-21T09:18:39;46.70;24.30
8067;DHT22;4076;48.076;9.118;2022-08-21T09:21:16;47.30;23.80
8067;DHT22;4076;48.076;9.118;2022-08-21T09:26:54;47.60;22.10
8067;DHT22;4076;48.076;9.118;2022-08-21T09:29:24;47.50;22.40
8067;DHT22;4076;48.076;9.118;2022-08-21T09:31:53;47.80;21.50
8067;DHT22;4076;48.076;9.118;2022-08-21T09:34:30;47.90;21.20
8067;DHT22;4076;48.076;9.118;2022-08-21T09:36:57;47.70;21.80
8067;DHT22;4076;48.076;9.118;2022-08-21T09:39:38;47.50;22.00
8067;DHT22;4076;48.076;9.118;2022-08-21T09:42:06;47.60;22.00
8067;DHT22;4076;48.076;9.118;2022-08-21T09:44:36;47.30;21.90
8067;DHT22;4076;48.076;9.118;2022-08-21T09:47:06;47.10;21.80
8067;DHT22;4076;48.076;9.118;2022-08-21T09:49:34;46.50;21.40
8067;DHT22;4076;48.076;9.118;2022-08-21T09:52:00;46.00;22.30
8067;DHT22;4076;48.076;9.118;2022-08-21T09:54:31;45.50;22.70
8067;DHT22;4076;48.076;9.118;2022-08-21T09:57:14;44.20;23.10
8067;DHT22;4076;48.076;9.118;2022-08-21T10:05:24;37.80;25.70
8067;DHT22;4076;48.076;9.118;2022-08-21T10:07:50;35.50;27.90
8067;DHT22;4076;48.076;9.118;2022-08-21T10:10:21;35.30;28.20
8067;DHT22;4076;48.076;9.118;2022-08-21T10:13:13;34.60;29.30
8067;DHT22;4076;48.076;9.118;2022-08-21T10:16:06;33.80;30.30
8067;DHT22;4076;48.076;9.118;2022-08-21T10:18:43;33.10;32.40
8067;DHT22;4076;48.076;9.118;2022-08-21T10:21:33;32.60;31.40
8067;DHT22;4076;48.076;9.118;2022-08-21T10:24:27;32.50;31.90
8067;DHT22;4076;48.076;9.118;2022-08-21T10:27:09;32.10;31.80
8067;DHT22;4076;48.076;9.118;2022-08-21T10:29:56;31.70;32.40
8067;DHT22;4076;48.076;9.118;2022-08-21T10:32:43;31.60;33.60
8067;DHT22;4076;48.076;9.118;2022-08-21T10:35:17;31.60;33.50
8067;DHT22;4076;48.076;9.118;2022-08-21T10:40:42;31.10;34.10
8067;DHT22;4076;48.076;9.118;2022-08-21T10:49:24;30.10;34.00
8067;DHT22;4076;48.076;9.118;2022-08-21T10:52:26;29.80;35.20
8067;DHT22;4076;48.076;9.118;2022-08-21T10:55:12;29.70;36.10
8067;DHT22;4076;48.076;9.118;2022-08-21T10:58:01;29.70;34.50
8067;DHT22;4076;48.076;9.118;2022-08-21T11:00:46;29.50;35.70
8067;DHT22;4076;48.076;9.118;2022-08-21T11:05:51;29.30;35.30
8067;DHT22;4076;48.076;9.118;2022-08-21T11:08:30;29.00;35.90
8067;DHT22;4076;48.076;9.118;2022-08-21T11:11:20;28.90;36.60
8067;DHT22;4076;48.076;9.118;2022-08-21T11:14:13;28.70;36.00
8067;DHT22;4076;48.076;9.118;2022-08-21T11:17:10;28.50;37.20
8067;DHT22;4076;48.076;9.118;2022-08-21T11:22:12;28.10;38.00
8067;DHT22;4076;48.076;9.118;2022-08-21T11:28:31;28.00;38.00
8067;DHT22;4076;48.076;9.118;2022-08-21T11:30:57;28.00;38.00
8067;DHT22;4076;48.076;9.118;2022-08-21T11:36:11;27.80;37.00
8067;DHT22;4076;48.076;9.118;2022-08-21T11:38:41;27.70;37.70
8067;DHT22;4076;48.076;9.118;2022-08-21T11:43:47;27.80;37.20
8067;DHT22;4076;48.076;9.118;2022-08-21T11:46:44;27.70;37.50
8067;DHT22;4076;48.076;9.118;2022-08-21T11:51:45;27.40;36.60
8067;DHT22;4076;48.076;9.118;2022-08-21T11:54:26;27.10;38.20
8067;DHT22;4076;48.076;9.118;2022-08-21T11:57:05;27.00;38.70
8067;DHT22;4076;48.076;9.118;2022-08-21T11:59:37;27.00;38.90
8067;DHT22;4076;48.076;9.118;2022-08-21T12:02:16;26.90;38.90
8067;DHT22;4076;48.076;9.118;2022-08-21T12:04:47;26.80;37.50
8067;DHT22;4076;48.076;9.118;2022-08-21T12:07:28;26.60;38.50
8067;DHT22;4076;48.076;9.118;2022-08-21T12:09:57;26.40;39.50
8067;DHT22;4076;48.076;9.118;2022-08-21T12:12:34;26.50;39.40
8067;DHT22;4076;48.076;9.118;2022-08-21T12:15:14;26.60;39.00
8067;DHT22;4076;48.076;9.118;2022-08-21T12:17:51;26.60;37.50
8067;DHT22;4076;48.076;9.118;2022-08-21T12:20:44;26.60;38.00
8067;DHT22;4076;48.076;9.118;2022-08-21T12:26:00;26.20;38.00
8067;DHT22;4076;48.076;9.118;2022-08-21T12:28:26;26.30;38.40
8067;DHT22;4076;48.076;9.118;2022-08-21T12:30:56;26.40;38.00
8067;DHT22;4076;48.076;9.118;2022-08-21T12:35:51;26.60;38.90
8067;DHT22;4076;48.076;9.118;2022-08-21T12:38:34;26.50;37.30
8067;DHT22;4076;48.076;9.118;2022-08-21T12:41:09;26.40;37.10
8067;DHT22;4076;48.076;9.118;2022-08-21T12:43:42;26.40;36.60
8067;DHT22;4076;48.076;9.118;2022-08-21T12:46:18;26.40;37.20
8067;DHT22;4076;48.076;9.118;2022-08-21T12:49:15;26.30;37.40
8067;DHT22;4076;48.076;9.118;2022-08-21T12:51:54;26.20;36.40
8067;DHT22;4076;48.076;9.118;2022-08-21T12:54:32;26.30;36.10
8067;DHT22;4076;48.076;9.118;2022-08-21T12:57:05;26.30;36.20
8067;DHT22;4076;48.076;9.118;2022-08-21T12:59:31;26.30;36.70
8067;DHT22;4076;48.076;9.118;2022-08-21T13:01:59;26.30;37.20
8067;DHT22;4076;48.076;9.118;2022-08-21T13:04:40;26.30;37.10
8067;DHT22;4076;48.076;9.118;2022-08-21T13:07:09;26.40;37.10
8067;DHT22;4076;48.076;9.118;2022-08-21T13:09:46;26.40;37.10
8067;DHT22;4076;48.076;9.118;2022-08-21T13:12:13;26.50;38.40
8067;DHT22;4076;48.076;9.118;2022-08-21T13:14:42;26.50;37.30
8067;DHT22;4076;48.076;9.118;2022-08-21T13:17:10;26.40;36.10
8067;DHT22;4076;48.076;9.118;2022-08-21T13:19:36;26.20;36.20
8067;DHT22;4076;48.076;9.118;2022-08-21T13:22:02;26.20;39.00
8067;DHT22;4076;48.076;9.118;2022-08-21T13:24:36;26.10;37.10
8067;DHT22;4076;48.076;9.118;2022-08-21T13:27:03;26.10;37.00
8067;DHT22;4076;48.076;9.118;2022-08-21T13:29:32;26.10;37.10
8067;DHT22;4076;48.076;9.118;2022-08-21T13:32:03;26.10;37.20
8067;DHT22;4076;48.076;9.118;2022-08-21T13:34:33;26.10;36.50
8067;DHT22;4076;48.076;9.118;2022-08-21T13:37:03;26.20;36.20
8067;DHT22;4076;48.076;9.118;2022-08-21T13:39:29;26.10;36.60
8067;DHT22;4076;48.076;9.118;2022-08-21T13:41:58;26.10;36.60
8067;DHT22;4076;48.076;9.118;2022-08-21T13:44:42;26.10;36.20
8067;DHT22;4076;48.076;9.118;2022-08-21T13:47:09;26.10;36.30
8067;DHT22;4076;48.076;9.118;2022-08-21T13:49:41;26.20;35.70
8067;DHT22;4076;48.076;9.118;2022-08-21T13:52:15;26.10;35.60
8067;DHT22;4076;48.076;9.118;2022-08-21T13:54:42;26.00;36.00
8067;DHT22;4076;48.076;9.118;2022-08-21T13:57:36;26.00;37.10
8067;DHT22;4076;48.076;9.118;2022-08-21T14:00:26;25.90;36.80
8067;DHT22;4076;48.076;9.118;2022-08-21T14:02:53;25.80;35.40
8067;DHT22;4076;48.076;9.118;2022-08-21T14:05:25;25.80;36.10
8067;DHT22;4076;48.076;9.118;2022-08-21T14:08:14;25.70;36.30
8067;DHT22;4076;48.076;9.118;2022-08-21T14:10:48;25.80;35.90
8067;DHT22;4076;48.076;9.118;2022-08-21T14:16:22;25.90;35.70
8067;DHT22;4076;48.076;9.118;2022-08-21T14:21:37;25.80;36.80
8067;DHT22;4076;48.076;9.118;2022-08-21T14:26:35;26.00;37.40
8067;DHT22;4076;48.076;9.118;2022-08-21T14:29:07;26.00;37.50
8067;DHT22;4076;48.076;9.118;2022-08-21T14:31:33;26.00;38.60
8067;DHT22;4076;48.076;9.118;2022-08-21T14:34:00;26.00;38.70
8067;DHT22;4076;48.076;9.118;2022-08-21T14:36:26;26.10;37.80
8067;DHT22;4076;48.076;9.118;2022-08-21T14:38:52;26.00;36.70
8067;DHT22;4076;48.076;9.118;2022-08-21T14:41:25;25.90;38.30
8067;DHT22;4076;48.076;9.118;2022-08-21T14:43:53;26.00;38.50
8067;DHT22;4076;48.076;9.118;2022-08-21T14:46:24;25.90;38.80
8067;DHT22;4076;48.076;9.118;2022-08-21T14:48:51;25.90;38.80
8067;DHT22;4076;48.076;9.118;2022-08-21T14:51:16;25.90;38.10
8067;DHT22;4076;48.076;9.118;2022-08-21T14:53:42;25.90;38.70
8067;DHT22;4076;48.076;9.118;2022-08-21T14:56:08;25.90;39.30
8067;DHT22;4076;48.076;9.118;2022-08-21T14:58:37;25.90;38.60
8067;DHT22;4076;48.076;9.118;2022-08-21T15:01:05;25.80;37.50
8067;DHT22;4076;48.076;9.118;2022-08-21T15:03:31;25.80;36.80
8067;DHT22;4076;48.076;9.118;2022-08-21T15:05:57;25.70;36.20
8067;DHT22;4076;48.076;9.118;2022-08-21T15:08:23;25.60;37.20
8067;DHT22;4076;48.076;9.118;2022-08-21T15:10:48;25.60;37.80
8067;DHT22;4076;48.076;9.118;2022-08-21T15:13:14;25.50;37.40
8067;DHT22;4076;48.076;9.118;2022-08-21T15:15:43;25.50;37.40
8067;DHT22;4076;48.076;9.118;2022-08-21T15:18:09;25.50;37.10
8067;DHT22;4076;48.076;9.118;2022-08-21T15:20:36;25.40;36.50
8067;DHT22;4076;48.076;9.118;2022-08-21T15:23:03;25.40;38.10
8067;DHT22;4076;48.076;9.118;2022-08-21T15:25:28;25.40;38.00
8067;DHT22;4076;48.076;9.118;2022-08-21T15:27:54;25.30;38.60
8067;DHT22;4076;48.076;9.118;2022-08-21T15:30:20;25.30;38.30
8067;DHT22;4076;48.076;9.118;2022-08-21T15:32:46;25.30;38.10
8067;DHT22;4076;48.076;9.118;2022-08-21T15:35:12;25.30;38.20
8067;DHT22;4076;48.076;9.118;2022-08-21T15:37:37;25.20;38.20
8067;DHT22;4076;48.076;9.118;2022-08-21T15:40:03;25.10;38.00
8067;DHT22;4076;48.076;9.118;2022-08-21T15:42:30;25.10;38.50
8067;DHT22;4076;48.076;9.118;2022-08-21T15:44:56;25.00;37.60
8067;DHT22;4076;48.076;9.118;2022-08-21T15:47:30;24.90;38.20
8067;DHT22;4076;48.076;9.118;2022-08-21T15:49:56;24.80;37.50
8067;DHT22;4076;48.076;9.118;2022-08-21T15:52:23;24.80;38.60
8067;DHT22;4076;48.076;9.118;2022-08-21T15:54:49;24.60;38.60
8067;DHT22;4076;48.076;9.118;2022-08-21T15:57:17;24.70;38.50
8067;DHT22;4076;48.076;9.118;2022-08-21T15:59:46;24.70;39.40
8067;DHT22;4076;48.076;9.118;2022-08-21T16:02:15;24.70;39.40
8067;DHT22;4076;48.076;9.118;2022-08-21T16:04:42;24.70;40.40
8067;DHT22;4076;48.076;9.118;2022-08-21T16:07:09;24.70;40.00
8067;DHT22;4076;48.076;9.118;2022-08-21T16:09:35;24.70;39.00
8067;DHT22;4076;48.076;9.118;2022-08-21T16:12:01;24.70;40.20
8067;DHT22;4076;48.076;9.118;2022-08-21T16:14:29;24.60;39.70
8067;DHT22;4076;48.076;9.118;2022-08-21T16:16:55;24.60;39.60
8067;DHT22;4076;48.076;9.118;2022-08-21T16:19:21;24.50;39.70
8067;DHT22;4076;48.076;9.118;2022-08-21T16:21:47;24.50;39.90
8067;DHT22;4076;48.076;9.118;2022-08-21T16:24:12;24.50;40.00
8067;DHT22;4076;48.076;9.118;2022-08-21T16:26:38;24.40;39.50
8067;DHT22;4076;48.076;9.118;2022-08-21T16:29:05;24.40;39.70
8067;DHT22;4076;48.076;9.118;2022-08-21T16:31:32;24.40;39.30
8067;DHT22;4076;48.076;9.118;2022-08-21T16:33:58;24.30;40.10
8067;DHT22;4076;48.076;9.118;2022-08-21T16:36:24;24.30;39.90
8067;DHT22;4076;48.076;9.118;2022-08-21T16:38:55;24.20;40.00
8067;DHT22;4076;48.076;9.118;2022-08-21T16:41:23;24.20;40.20
8067;DHT22;4076;48.076;9.118;2022-08-21T16:43:51;24.20;40.70
8067;DHT22;4076;48.076;9.118;2022-08-21T16:46:18;24.10;40.40
8067;DHT22;4076;48.076;9.118;2022-08-21T16:48:45;24.10;40.40
8067;DHT22;4076;48.076;9.118;2022-08-21T16:51:14;24.10;40.50
8067;DHT22;4076;48.076;9.118;2022-08-21T16:53:40;24.00;41.10
8067;DHT22;4076;48.076;9.118;2022-08-21T16:56:07;24.00;41.50
8067;DHT22;4076;48.076;9.118;2022-08-21T16:58:36;23.90;41.90
8067;DHT22;4076;48.076;9.118;2022-08-21T17:01:05;23.80;40.80
8067;DHT22;4076;48.076;9.118;2022-08-21T17:03:35;23.80;42.20
8067;DHT22;4076;48.076;9.118;2022-08-21T17:06:01;23.70;45.10
8067;DHT22;4076;48.076;9.118;2022-08-21T17:08:27;23.50;46.00
8067;DHT22;4076;48.076;9.118;2022-08-21T17:10:53;23.40;48.80
8067;DHT22;4076;48.076;9.118;2022-08-21T17:13:19;23.20;48.60
8067;DHT22;4076;48.076;9.118;2022-08-21T17:15:44;23.00;50.40
8067;DHT22;4076;48.076;9.118;2022-08-21T17:18:13;22.90;51.20